Time;durP1;ratioP1;P1;durP2;ratioP2;P2;SDS_P1;SDS_P2;PMS_P1;PMS_P2;Temp;Humidity;BMP_temperature;BMP_pressure;BME280_temperature;BME280_humidity;BME280_pressure;Samples;Min_cycle;Max_cycle;Signal;HPM_P1;HPM_P2
2024/01/27 20:14:11;;;;;;;434.50;172.47;;;;;;;;;;5031102;28;20603;-58
2024/01/27 20:16:37;;;;;;;428.33;167.50;;;;;;;;;;5036301;28;20284;-58
2024/01/27 20:19:03;;;;;;;404.20;155.47;;;;;;;;;;5033964;28;20204;-58
2024/01/27 20:21:29;;;;;;;376.93;155.73;;;;;;;;;;5029678;28;20187;-58
2024/01/27 20:23:55;;;;;;;355.20;139.87;;;;;;;;;;5037568;28;20218;-57
2024/01/27 20:26:21;;;;;;;378.13;164.80;;;;;;;;;;5036720;22;20239;-61
2024/01/27 20:28:47;;;;;;;355.30;149.43;;;;;;;;;;5023108;28;20194;-62
2024/01/27 20:31:13;;;;;;;387.50;166.07;;;;;;;;;;5009005;28;20185;-61
2024/01/27 20:33:39;;;;;;;285.87;123.60;;;;;;;;;;5029421;28;20194;-61
2024/01/27 20:36:05;;;;;;;299.73;131.37;;;;;;;;;;5022134;28;20286;-61
2024/01/27 20:38:31;;;;;;;353.57;149.67;;;;;;;;;;5011777;28;20180;-61
2024/01/27 20:40:57;;;;;;;325.90;139.73;;;;;;;;;;5012333;28;20185;-62
2024/01/27 20:43:23;;;;;;;331.27;140.50;;;;;;;;;;5009214;28;20208;-62
2024/01/27 20:45:49;;;;;;;299.93;133.17;;;;;;;;;;5007998;28;20212;-61
2024/01/27 20:48:16;;;;;;;335.03;142.33;;;;;;;;;;5005247;28;20551;-62
2024/01/27 20:50:42;;;;;;;314.53;130.80;;;;;;;;;;5000798;28;20181;-61
2024/01/27 20:53:08;;;;;;;336.03;136.77;;;;;;;;;;5001271;28;20208;-61
2024/01/27 20:55:34;;;;;;;333.20;141.77;;;;;;;;;;5015818;28;20210;-62
2024/01/27 20:58:00;;;;;;;363.30;154.33;;;;;;;;;;5003257;28;20942;-62
2024/01/27 21:00:26;;;;;;;403.83;167.43;;;;;;;;;;5007933;28;20180;-61
2024/01/27 21:02:52;;;;;;;298.53;125.23;;;4.50;99.90;;;;;;5009346;28;20220;-62
2024/01/27 21:05:18;;;;;;;306.87;125.40;;;;;;;;;;5007035;28;20283;-61
2024/01/27 21:07:44;;;;;;;335.47;137.07;;;;;;;;;;5009187;28;20641;-61
2024/01/27 21:10:10;;;;;;;332.90;135.63;;;;;;;;;;5006562;28;20185;-63
2024/01/27 21:12:36;;;;;;;338.57;138.93;;;;;;;;;;5006613;28;20184;-61
2024/01/27 21:15:03;;;;;;;300.13;123.70;;;;;;;;;;5012353;28;20779;-61
2024/01/27 21:17:29;;;;;;;317.80;130.23;;;;;;;;;;5004649;28;20678;-62
2024/01/27 21:19:55;;;;;;;289.33;117.47;;;;;;;;;;5007080;28;20184;-61
2024/01/27 21:22:21;;;;;;;325.83;134.37;;;;;;;;;;5014720;28;20378;-62
2024/01/27 21:24:47;;;;;;;302.10;127.60;;;;;;;;;;5005119;28;23286;-62
2024/01/27 21:27:13;;;;;;;315.63;129.57;;;;;;;;;;4996213;28;20519;-62
2024/01/27 21:29:39;;;;;;;345.77;139.30;;;;;;;;;;4994838;28;20274;-62
2024/01/27 21:32:05;;;;;;;305.27;124.20;;;;;;;;;;4994828;28;20193;-60
2024/01/27 21:34:31;;;;;;;345.60;141.03;;;;;;;;;;4988005;28;20197;-62
2024/01/27 21:36:57;;;;;;;327.43;132.40;;;;;;;;;;4995237;28;20208;-62
2024/01/27 21:39:25;;;;;;;328.83;134.17;;;;;;;;;;4992931;28;20190;-61
2024/01/27 21:41:51;;;;;;;334.87;139.97;;;;;;;;;;4995015;28;20278;-61
2024/01/27 21:44:17;;;;;;;307.77;123.93;;;;;;;;;;4990685;28;20258;-61
2024/01/27 21:46:43;;;;;;;290.97;121.77;;;;;;;;;;4999422;28;20188;-62
2024/01/27 21:49:09;;;;;;;367.23;151.20;;;;;;;;;;4985382;28;20325;-62
2024/01/27 21:51:36;;;;;;;364.70;148.37;;;;;;;;;;4982621;28;20957;-62
2024/01/27 21:54:02;;;;;;;367.63;148.10;;;;;;;;;;4997724;28;20193;-61
2024/01/27 21:56:28;;;;;;;270.63;116.30;;;;;;;;;;4996620;28;20234;-61
2024/01/27 21:58:54;;;;;;;279.77;119.93;;;;;;;;;;4999556;28;20208;-60
2024/01/27 22:01:20;;;;;;;290.47;128.03;;;;;;;;;;4995449;28;20358;-60
2024/01/27 22:03:46;;;;;;;295.90;128.50;;;;;;;;;;4991192;28;20561;-61
2024/01/27 22:06:13;;;;;;;330.13;136.33;;;;;;;;;;4990328;28;20201;-60
2024/01/27 22:08:39;;;;;;;280.13;121.63;;;;;;;;;;4990932;28;20298;-61
2024/01/27 22:11:05;;;;;;;287.30;122.17;;;;;;;;;;4990800;28;20243;-61
2024/01/27 22:13:31;;;;;;;349.40;140.00;;;;;;;;;;4990412;28;20204;-61
2024/01/27 22:15:57;;;;;;;346.03;137.17;;;;;;;;;;4991414;28;20208;-61
2024/01/27 22:18:23;;;;;;;306.73;129.10;;;;;;;;;;4999367;28;20589;-61
2024/01/27 22:20:49;;;;;;;328.33;133.13;;;;;;;;;;5004209;28;20283;-62
2024/01/27 22:23:15;;;;;;;265.50;118.17;;;;;;;;;;5010146;28;20303;-61
2024/01/27 22:25:41;;;;;;;292.93;123.70;;;;;;;;;;5005583;28;20206;-61
2024/01/27 22:28:07;;;;;;;301.90;130.57;;;;;;;;;;5006161;28;20740;-61
2024/01/27 22:30:34;;;;;;;320.60;131.20;;;;;;;;;;4986960;28;20180;-61
2024/01/27 22:33:00;;;;;;;268.23;115.23;;;;;;;;;;4993050;28;20312;-61
2024/01/27 22:35:26;;;;;;;321.20;131.40;;;;;;;;;;4990144;28;20219;-62
2024/01/27 22:37:52;;;;;;;303.77;121.87;;;;;;;;;;4994329;28;20227;-61
2024/01/27 22:40:18;;;;;;;288.77;120.33;;;;;;;;;;4990873;28;20604;-61
2024/01/27 22:42:44;;;;;;;295.63;127.17;;;;;;;;;;4990795;28;20767;-61
2024/01/27 22:45:10;;;;;;;270.60;119.40;;;3.90;99.90;;;;;;4991164;28;20214;-61
2024/01/27 22:47:39;;;;;;;330.70;129.60;;;;;;;;;;4992471;28;20260;-61
2024/01/27 22:50:06;;;;;;;331.90;139.77;;;;;;;;;;4988246;28;20192;-61
2024/01/27 22:52:32;;;;;;;335.20;136.80;;;;;;;;;;4991949;28;20184;-61
2024/01/27 22:54:58;;;;;;;302.87;124.73;;;;;;;;;;4983299;28;20207;-61
2024/01/27 22:57:24;;;;;;;279.03;121.37;;;;;;;;;;4995141;28;20208;-62
2024/01/27 22:59:50;;;;;;;286.30;119.87;;;;;;;;;;4989371;28;20315;-61
2024/01/27 23:02:16;;;;;;;328.63;129.97;;;;;;;;;;4987983;28;20218;-61
2024/01/27 23:04:42;;;;;;;311.10;131.83;;;;;;;;;;4987398;28;20206;-61
2024/01/27 23:07:09;;;;;;;304.47;124.97;;;3.70;99.90;;;;;;4990270;28;20181;-61
2024/01/27 23:09:35;;;;;;;350.10;146.57;;;;;;;;;;4992005;28;20229;-62
2024/01/27 23:12:01;;;;;;;321.00;131.87;;;;;;;;;;4995050;28;20861;-63
2024/01/27 23:14:27;;;;;;;313.30;126.00;;;;;;;;;;4994440;28;20177;-61
2024/01/27 23:16:52;;;;;;;318.60;127.47;;;;;;;;;;4990960;28;20186;-62
2024/01/27 23:19:18;;;;;;;330.10;134.03;;;;;;;;;;4990121;28;20235;-61
2024/01/27 23:21:44;;;;;;;311.77;129.97;;;;;;;;;;4989331;28;20250;-61
2024/01/27 23:24:10;;;;;;;258.43;109.33;;;;;;;;;;5000512;28;20224;-61
2024/01/27 23:26:36;;;;;;;320.10;130.60;;;;;;;;;;4995408;28;20216;-61
2024/01/27 23:29:04;;;;;;;310.80;125.00;;;;;;;;;;4993688;28;20181;-61
2024/01/27 23:31:30;;;;;;;303.50;123.33;;;;;;;;;;4993635;28;20842;-61
2024/01/27 23:33:56;;;;;;;274.43;114.67;;;;;;;;;;4992589;28;20198;-61
2024/01/27 23:36:22;;;;;;;267.30;112.07;;;;;;;;;;4986727;28;20217;-61
2024/01/27 23:38:48;;;;;;;285.30;123.23;;;;;;;;;;4988419;28;20185;-61
2024/01/27 23:41:13;;;;;;;277.37;119.03;;;;;;;;;;4992848;28;20192;-61
2024/01/27 23:43:39;;;;;;;348.40;143.63;;;;;;;;;;4987469;28;20216;-61
2024/01/27 23:46:05;;;;;;;299.43;123.87;;;;;;;;;;4989182;28;20692;-61
2024/01/27 23:48:31;;;;;;;298.00;124.60;;;3.40;99.90;;;;;;4989139;28;20268;-61
2024/01/27 23:50:58;;;;;;;266.57;113.60;;;;;;;;;;4990827;28;20173;-61
2024/01/27 23:53:24;;;;;;;264.67;111.60;;;;;;;;;;4986919;28;20239;-61
2024/01/27 23:55:53;;;;;;;262.30;112.93;;;;;;;;;;4990625;28;20213;-61
2024/01/27 23:58:19;;;;;;;307.10;123.00;;;;;;;;;;4993838;28;20196;-61
